createdAt,value
2023-01-15T00:00:05.074Z,75.85
2023-01-15T00:02:32.616Z,77.13
2023-01-15T00:05:03.176Z,74.19
2023-01-15T00:07:46.183Z,72.66
2023-01-15T00:10:12.628Z,74.86
2023-01-15T00:12:39.067Z,74.75
2023-01-15T00:15:18.090Z,76.07
2023-01-15T00:17:45.195Z,77.18
2023-01-15T00:20:11.904Z,74.48
2023-01-15T00:22:41.518Z,74.72
2023-01-15T00:25:29.010Z,74.05
2023-01-15T00:27:55.432Z,71.87
2023-01-15T00:30:22.095Z,71.42
2023-01-15T00:32:49.428Z,72.93
2023-01-15T00:35:23.056Z,77.44
2023-01-15T00:37:50.287Z,78.08
2023-01-15T00:40:17.926Z,76.79
2023-01-15T00:42:50.390Z,74.39
2023-01-15T00:45:21.590Z,75.49
2023-01-15T00:47:51.610Z,74.64
2023-01-15T00:50:18.467Z,77.03
2023-01-15T00:52:46.765Z,74.10
2023-01-15T00:55:13.734Z,77.06
2023-01-15T00:57:46.461Z,79.10
2023-01-15T01:00:14.084Z,77.62
2023-01-15T01:02:40.641Z,76.71
2023-01-15T01:05:07.608Z,74.57
2023-01-15T01:07:34.506Z,73.67
2023-01-15T01:10:01.005Z,72.67
2023-01-15T01:12:28.634Z,74.35
2023-01-15T01:14:56.979Z,74.29
2023-01-15T01:17:23.630Z,74.79
2023-01-15T01:19:51.387Z,75.05
2023-01-15T01:22:25.103Z,73.59
2023-01-15T01:24:51.808Z,74.36
2023-01-15T01:27:32.168Z,75.09
2023-01-15T01:29:58.860Z,74.39
2023-01-15T01:32:25.472Z,74.49
2023-01-15T01:34:52.019Z,73.21
2023-01-15T01:37:30.970Z,73.89
2023-01-15T01:39:57.707Z,73.78
2023-01-15T01:42:25.937Z,74.80
2023-01-15T01:44:52.436Z,73.51
2023-01-15T01:47:23.015Z,76.08
2023-01-15T01:50:09.829Z,73.17
2023-01-15T01:52:40.556Z,74.91
2023-01-15T01:55:07.893Z,75.37
2023-01-15T01:57:34.987Z,76.04
2023-01-15T02:00:01.986Z,76.40
2023-01-15T02:02:45.138Z,77.16
2023-01-15T02:05:14.962Z,75.92
2023-01-15T02:07:41.917Z,75.11
2023-01-15T02:10:21.048Z,75.27
2023-01-15T02:12:56.841Z,75.46
2023-01-15T02:15:31.137Z,76.03
2023-01-15T02:17:57.847Z,76.77
2023-01-15T02:20:44.625Z,74.80
2023-01-15T02:23:12.552Z,76.78
2023-01-15T02:25:54.397Z,77.80
2023-01-15T02:28:42.369Z,73.14
2023-01-15T02:31:46.780Z,74.90
2023-01-15T02:34:31.592Z,76.29
2023-01-15T02:37:02.108Z,78.42
2023-01-15T02:39:38.932Z,78.93
2023-01-15T02:42:08.562Z,76.32
2023-01-15T02:44:39.878Z,75.29
2023-01-15T02:47:08.896Z,72.56
2023-01-15T02:49:38.945Z,75.40
2023-01-15T02:52:08.476Z,72.52
2023-01-15T02:54:42.172Z,74.52
2023-01-15T02:57:10.485Z,74.15
2023-01-15T02:59:39.521Z,75.73
2023-01-15T03:02:11.103Z,77.89
2023-01-15T03:04:40.424Z,75.60
2023-01-15T03:07:09.999Z,72.71
2023-01-15T03:09:37.775Z,75.40
2023-01-15T03:12:08.156Z,77.56
2023-01-15T03:14:40.780Z,75.03
2023-01-15T03:17:22.666Z,72.26
2023-01-15T03:20:00.931Z,75.41
2023-01-15T03:22:30.531Z,74.13
2023-01-15T03:25:17.217Z,73.50
2023-01-15T03:27:43.708Z,73.93
2023-01-15T03:30:10.717Z,74.30
2023-01-15T03:32:37.687Z,72.95
2023-01-15T03:35:06.815Z,73.08
2023-01-15T03:37:34.065Z,72.41
2023-01-15T03:40:01.867Z,72.03
2023-01-15T03:42:34.622Z,71.96
2023-01-15T03:45:21.555Z,72.61
2023-01-15T03:48:01.963Z,73.16
2023-01-15T03:50:44.182Z,72.67
2023-01-15T03:53:29.563Z,72.77
2023-01-15T03:55:56.148Z,73.76
2023-01-15T03:58:23.265Z,70.50
2023-01-15T04:00:56.356Z,69.50
2023-01-15T04:03:25.644Z,71.15
2023-01-15T04:05:53.689Z,71.91
2023-01-15T04:08:21.614Z,71.09
2023-01-15T04:10:55.362Z,73.65
2023-01-15T04:13:22.469Z,72.14
2023-01-15T04:15:49.642Z,72.64
2023-01-15T04:18:17.400Z,73.38
2023-01-15T04:20:44.192Z,72.34
2023-01-15T04:23:10.865Z,72.11
2023-01-15T04:25:38.297Z,74.31
2023-01-15T04:28:06.748Z,71.29
2023-01-15T04:30:33.526Z,69.15
2023-01-15T04:33:00.217Z,69.88
2023-01-15T04:35:26.873Z,71.47
2023-01-15T04:37:57.110Z,74.64
2023-01-15T04:40:42.650Z,71.38
2023-01-15T04:43:29.545Z,69.73
2023-01-15T04:45:56.701Z,70.99
2023-01-15T04:48:23.600Z,70.73
2023-01-15T04:50:50.561Z,73.01
2023-01-15T04:53:17.503Z,74.18
2023-01-15T04:55:44.201Z,73.87
2023-01-15T04:58:12.009Z,72.00
2023-01-15T05:00:38.567Z,70.28
2023-01-15T05:03:05.210Z,69.58
2023-01-15T05:05:32.686Z,69.71
2023-01-15T05:08:00.421Z,71.14
2023-01-15T05:10:27.023Z,71.50
2023-01-15T05:12:53.559Z,70.95
2023-01-15T05:15:21.442Z,73.14
2023-01-15T05:17:48.313Z,71.16
2023-01-15T05:20:15.750Z,71.70
2023-01-15T05:22:42.633Z,69.62
2023-01-15T05:25:09.481Z,70.37
2023-01-15T05:27:36.138Z,69.97
2023-01-15T05:30:03.580Z,70.29
2023-01-15T05:32:30.592Z,70.11
2023-01-15T05:34:57.214Z,68.85
2023-01-15T05:37:24.035Z,71.29
2023-01-15T05:39:51.336Z,72.83
2023-01-15T05:42:19.233Z,70.36
2023-01-15T05:44:46.929Z,72.77
2023-01-15T05:47:14.388Z,71.98
2023-01-15T05:49:42.283Z,68.38
2023-01-15T05:52:09.527Z,69.36
2023-01-15T05:54:36.563Z,69.64
2023-01-15T05:57:05.154Z,68.20
2023-01-15T05:59:32.510Z,68.57
2023-01-15T06:02:00.968Z,68.39
2023-01-15T06:04:27.685Z,68.42
2023-01-15T06:06:55.862Z,69.33
2023-01-15T06:09:27.820Z,70.18
2023-01-15T06:11:55.320Z,69.00
2023-01-15T06:14:22.092Z,67.66
2023-01-15T06:17:02.855Z,68.00
2023-01-15T06:19:29.632Z,68.05
2023-01-15T06:21:56.138Z,69.29
2023-01-15T06:24:23.255Z,69.57
2023-01-15T06:26:49.895Z,68.34
2023-01-15T06:29:19.134Z,67.83
2023-01-15T06:31:45.670Z,66.81
2023-01-15T06:34:12.333Z,65.57
2023-01-15T06:36:38.882Z,66.09
2023-01-15T06:39:05.654Z,67.25
2023-01-15T06:41:52.683Z,65.84
2023-01-15T06:44:37.960Z,67.79
2023-01-15T06:47:20.960Z,66.41
2023-01-15T06:49:48.725Z,66.53
2023-01-15T06:52:15.358Z,64.48
2023-01-15T06:54:42.324Z,65.93
2023-01-15T06:57:08.784Z,64.93
2023-01-15T06:59:35.466Z,65.50
2023-01-15T07:02:02.826Z,64.57
2023-01-15T07:04:29.541Z,65.41
2023-01-15T07:06:56.465Z,66.17
2023-01-15T07:09:25.988Z,64.79
2023-01-15T07:11:52.644Z,65.27
2023-01-15T07:14:20.125Z,64.73
2023-01-15T07:16:48.120Z,65.10
2023-01-15T07:19:14.591Z,63.39
2023-01-15T07:21:41.308Z,64.69
2023-01-15T07:24:08.365Z,66.21
2023-01-15T07:26:35.277Z,66.71
2023-01-15T07:29:01.729Z,64.59
2023-01-15T07:31:28.145Z,64.17
2023-01-15T07:33:55.867Z,65.43
2023-01-15T07:36:22.643Z,63.44
2023-01-15T07:38:49.868Z,63.93
2023-01-15T07:41:35.221Z,64.68
2023-01-15T07:44:20.579Z,62.58
2023-01-15T07:47:05.722Z,63.79
2023-01-15T07:49:48.309Z,63.79
2023-01-15T07:52:18.989Z,62.95
2023-01-15T07:54:47.822Z,63.53
2023-01-15T07:57:16.711Z,64.68
2023-01-15T07:59:43.701Z,64.53
2023-01-15T08:02:10.277Z,64.67
2023-01-15T08:04:37.373Z,63.28
2023-01-15T08:07:05.411Z,63.76
2023-01-15T08:09:32.131Z,63.87
2023-01-15T08:12:17.909Z,63.34
2023-01-15T08:15:02.975Z,63.01
2023-01-15T08:17:29.757Z,65.19
2023-01-15T08:19:56.121Z,65.34
2023-01-15T08:22:22.733Z,65.51
2023-01-15T08:24:49.332Z,63.57
2023-01-15T08:27:15.819Z,65.81
2023-01-15T08:29:44.625Z,65.50
2023-01-15T08:32:11.202Z,62.66
2023-01-15T08:34:37.949Z,63.23
2023-01-15T08:37:04.791Z,64.17
2023-01-15T08:39:31.451Z,64.20
2023-01-15T08:41:59.582Z,64.83
2023-01-15T08:44:26.192Z,64.90
2023-01-15T08:46:53.171Z,65.50
2023-01-15T08:49:20.898Z,63.38
2023-01-15T08:51:52.346Z,63.32
2023-01-15T08:54:23.035Z,63.48
2023-01-15T08:56:50.298Z,62.11
2023-01-15T08:59:17.879Z,64.28
2023-01-15T09:01:45.652Z,64.08
2023-01-15T09:04:19.214Z,62.76
2023-01-15T09:06:46.230Z,62.73
2023-01-15T09:09:12.953Z,62.96
2023-01-15T09:11:41.685Z,63.20
2023-01-15T09:14:09.305Z,62.53
2023-01-15T09:16:56.114Z,61.96
2023-01-15T09:19:23.313Z,62.59
2023-01-15T09:21:50.596Z,62.87
2023-01-15T09:24:17.250Z,62.85
2023-01-15T09:26:43.878Z,63.27
2023-01-15T09:29:10.938Z,63.52
2023-01-15T09:31:37.629Z,64.12
2023-01-15T09:34:05.243Z,63.21
2023-01-15T09:36:33.517Z,61.15
2023-01-15T09:39:00.981Z,62.24
2023-01-15T09:41:51.062Z,61.75
2023-01-15T09:44:23.389Z,63.61
2023-01-15T09:46:49.841Z,63.17
2023-01-15T09:49:16.695Z,62.98
2023-01-15T09:51:52.365Z,62.56
2023-01-15T09:54:37.397Z,62.54
2023-01-15T09:57:04.856Z,60.84
2023-01-15T09:59:34.952Z,59.59
2023-01-15T10:02:04.284Z,59.26
2023-01-15T10:04:49.445Z,59.87
2023-01-15T10:07:18.729Z,60.78
2023-01-15T10:09:47.938Z,58.77
2023-01-15T10:12:35.723Z,59.77
2023-01-15T10:15:25.790Z,58.48
2023-01-15T10:17:54.046Z,58.93
2023-01-15T10:20:33.579Z,57.71
2023-01-15T10:23:00.030Z,57.53
2023-01-15T10:25:31.998Z,57.26
2023-01-15T10:28:04.208Z,56.12
2023-01-15T10:30:41.072Z,56.40
2023-01-15T10:33:20.846Z,54.91
2023-01-15T10:36:01.278Z,56.46
2023-01-15T10:38:27.958Z,55.53
2023-01-15T10:41:12.612Z,55.71
2023-01-15T10:43:46.145Z,54.95
2023-01-15T10:46:15.564Z,54.73
2023-01-15T10:48:57.120Z,54.47
2023-01-15T10:51:42.348Z,55.88
2023-01-15T10:54:21.206Z,53.84
2023-01-15T10:56:56.185Z,54.03
2023-01-15T10:59:35.204Z,55.20
2023-01-15T11:02:02.845Z,55.55
2023-01-15T11:04:31.462Z,55.14
2023-01-15T11:06:58.147Z,54.83
2023-01-15T11:09:34.600Z,55.90
2023-01-15T11:12:20.157Z,54.65
2023-01-15T11:15:06.251Z,54.30
2023-01-15T11:17:55.409Z,54.83
2023-01-15T11:20:24.960Z,55.10
2023-01-15T11:22:51.876Z,53.98
2023-01-15T11:25:29.042Z,55.50
2023-01-15T11:27:55.847Z,55.10
2023-01-15T11:30:27.482Z,54.91
2023-01-15T11:32:58.949Z,54.88
2023-01-15T11:35:26.358Z,56.35
2023-01-15T11:38:06.225Z,55.01
2023-01-15T11:40:32.847Z,54.75
2023-01-15T11:43:18.239Z,53.89
2023-01-15T11:46:07.521Z,54.15
2023-01-15T11:48:53.787Z,54.38
2023-01-15T11:51:20.192Z,53.54
2023-01-15T11:53:49.212Z,53.56
2023-01-15T11:56:21.265Z,54.66
2023-01-15T11:58:49.635Z,54.79
2023-01-15T12:01:31.473Z,56.05
2023-01-15T12:03:59.036Z,54.64
2023-01-15T12:06:26.865Z,55.84
2023-01-15T12:09:10.512Z,56.42
2023-01-15T12:11:43.372Z,57.46
2023-01-15T12:14:09.717Z,56.63
2023-01-15T12:16:49.560Z,57.73
2023-01-15T12:19:28.376Z,58.57
2023-01-15T12:21:59.045Z,58.72
2023-01-15T12:24:31.331Z,59.39
2023-01-15T12:27:02.126Z,58.93
2023-01-15T12:29:32.017Z,58.98
2023-01-15T12:32:02.030Z,59.58
2023-01-15T12:34:40.648Z,57.75
2023-01-15T12:37:12.332Z,58.01
2023-01-15T12:39:43.158Z,57.18
2023-01-15T12:42:35.880Z,55.60
2023-01-15T12:45:07.990Z,55.39
2023-01-15T12:47:52.987Z,56.16
2023-01-15T12:50:19.798Z,56.01
2023-01-15T12:52:48.455Z,57.58
2023-01-15T12:55:22.691Z,58.08
2023-01-15T12:57:55.404Z,58.65
2023-01-15T13:00:28.911Z,57.31
2023-01-15T13:03:14.171Z,58.98
2023-01-15T13:05:48.408Z,59.50
2023-01-15T13:08:16.447Z,59.67
2023-01-15T13:10:43.287Z,61.00
2023-01-15T13:13:22.979Z,59.80
2023-01-15T13:15:54.436Z,59.83
2023-01-15T13:18:31.177Z,60.54
2023-01-15T13:20:58.887Z,61.07
2023-01-15T13:23:44.340Z,59.89
2023-01-15T13:26:29.567Z,60.09
2023-01-15T13:29:03.030Z,59.56
2023-01-15T13:31:52.866Z,61.58
2023-01-15T13:34:26.215Z,61.07
2023-01-15T13:36:54.916Z,61.27
2023-01-15T13:39:23.505Z,59.50
2023-01-15T13:42:09.672Z,58.52
2023-01-15T13:44:44.780Z,58.79
2023-01-15T13:47:13.493Z,60.50
2023-01-15T13:49:41.958Z,60.75
2023-01-15T13:52:20.461Z,59.24
2023-01-15T13:54:46.810Z,59.57
2023-01-15T13:57:22.699Z,60.50
2023-01-15T13:59:51.082Z,60.06
2023-01-15T14:02:24.450Z,61.15
2023-01-15T14:04:51.050Z,60.30
2023-01-15T14:07:37.146Z,60.19
2023-01-15T14:10:09.661Z,59.16
2023-01-15T14:12:47.286Z,59.74
2023-01-15T14:15:28.974Z,59.19
2023-01-15T14:18:03.548Z,58.25
2023-01-15T14:20:36.781Z,58.68
2023-01-15T14:23:22.103Z,59.28
2023-01-15T14:25:57.761Z,59.65
2023-01-15T14:28:41.268Z,57.16
2023-01-15T14:31:16.790Z,58.22
2023-01-15T14:33:55.775Z,58.30
2023-01-15T14:36:30.592Z,57.98
2023-01-15T14:38:58.975Z,58.48
2023-01-15T14:41:55.890Z,59.52
2023-01-15T14:44:32.670Z,58.95
2023-01-15T14:47:06.577Z,57.40
2023-01-15T14:49:43.317Z,58.07
2023-01-15T14:52:11.829Z,58.23
2023-01-15T14:54:39.498Z,57.74
2023-01-15T14:57:09.518Z,59.32
2023-01-15T14:59:36.005Z,60.58
2023-01-15T15:02:06.051Z,59.52
2023-01-15T15:04:39.073Z,59.02
2023-01-15T15:07:12.979Z,59.76
2023-01-15T15:10:03.719Z,59.51
2023-01-15T15:12:44.724Z,60.09
2023-01-15T15:15:36.722Z,61.66
2023-01-15T15:18:13.324Z,65.45
2023-01-15T15:20:54.981Z,69.46
2023-01-15T15:23:24.662Z,70.61
2023-01-15T15:26:01.401Z,75.43
2023-01-15T15:28:28.987Z,79.11
2023-01-15T15:31:01.820Z,76.21
2023-01-15T15:33:40.375Z,75.16
2023-01-15T15:36:08.293Z,79.09
2023-01-15T15:38:36.145Z,79.75
2023-01-15T15:41:05.704Z,79.90
2023-01-15T15:44:01.134Z,75.76
2023-01-15T15:46:48.122Z,74.89
2023-01-15T15:49:15.733Z,80.93
2023-01-15T15:51:46.370Z,82.85
2023-01-15T15:54:19.168Z,83.94
2023-01-15T15:56:55.675Z,83.43
2023-01-15T15:59:30.056Z,84.10
2023-01-15T16:01:59.396Z,83.70
2023-01-15T16:04:28.798Z,84.18
2023-01-15T16:06:55.948Z,80.81
2023-01-15T16:09:23.836Z,83.91
2023-01-15T16:11:53.350Z,83.87
2023-01-15T16:14:20.820Z,82.84
2023-01-15T16:16:48.698Z,84.11
2023-01-15T16:19:21.743Z,84.15
2023-01-15T16:21:48.583Z,83.62
2023-01-15T16:24:25.709Z,85.39
2023-01-15T16:27:27.090Z,86.78
2023-01-15T16:29:54.442Z,85.08
2023-01-15T16:32:24.476Z,84.72
2023-01-15T16:34:58.975Z,82.52
2023-01-15T16:37:30.783Z,83.03
2023-01-15T16:40:03.115Z,85.86
2023-01-15T16:42:37.956Z,83.03
2023-01-15T16:45:11.301Z,82.84
2023-01-15T16:47:38.094Z,82.90
2023-01-15T16:50:20.307Z,82.89
2023-01-15T16:52:48.016Z,81.72
2023-01-15T16:55:33.602Z,83.11
2023-01-15T16:58:12.879Z,82.74
2023-01-15T17:00:44.540Z,79.90
2023-01-15T17:03:12.374Z,83.06
2023-01-15T17:05:39.396Z,81.77
2023-01-15T17:08:16.059Z,82.55
2023-01-15T17:10:51.867Z,81.35
2023-01-15T17:13:19.715Z,82.75
2023-01-15T17:15:46.871Z,82.01
2023-01-15T17:18:22.657Z,81.17
2023-01-15T17:20:49.600Z,81.70
2023-01-15T17:23:17.758Z,80.41
2023-01-15T17:25:55.068Z,82.81
2023-01-15T17:28:24.655Z,81.94
2023-01-15T17:30:53.268Z,83.77
2023-01-15T17:33:23.746Z,82.83
2023-01-15T17:35:53.534Z,81.92
2023-01-15T17:38:25.800Z,81.10
2023-01-15T17:40:57.676Z,84.75
2023-01-15T17:43:24.366Z,84.27
2023-01-15T17:45:51.497Z,81.39
2023-01-15T17:48:18.462Z,84.08
2023-01-15T17:50:47.474Z,82.96
2023-01-15T17:53:14.305Z,82.16
2023-01-15T17:55:59.878Z,80.37
2023-01-15T17:58:49.691Z,81.88
2023-01-15T18:01:38.020Z,84.12
2023-01-15T18:04:24.544Z,85.82
2023-01-15T18:06:53.206Z,86.98
2023-01-15T18:09:23.107Z,87.34
2023-01-15T18:11:50.432Z,83.32
2023-01-15T18:14:17.681Z,83.05
2023-01-15T18:16:44.780Z,88.00
2023-01-15T18:19:12.089Z,84.48
2023-01-15T18:21:40.174Z,83.53
2023-01-15T18:24:07.969Z,79.49
2023-01-15T18:26:35.870Z,78.53
2023-01-15T18:29:04.819Z,77.74
2023-01-15T18:31:31.577Z,81.62
2023-01-15T18:33:58.254Z,80.23
2023-01-15T18:36:24.699Z,81.13
2023-01-15T18:38:51.488Z,79.98
2023-01-15T18:41:37.998Z,81.28
2023-01-15T18:44:25.156Z,81.36
2023-01-15T18:46:53.663Z,81.49
2023-01-15T18:49:20.995Z,80.23
2023-01-15T18:52:08.265Z,80.97
2023-01-15T18:54:35.595Z,79.00
2023-01-15T18:57:02.576Z,79.94
2023-01-15T18:59:29.478Z,79.41
2023-01-15T19:02:21.287Z,79.12
2023-01-15T19:04:48.314Z,78.02
2023-01-15T19:07:15.300Z,81.60
2023-01-15T19:09:41.960Z,78.73
2023-01-15T19:12:08.786Z,79.30
2023-01-15T19:14:54.072Z,77.54
2023-01-15T19:20:38.943Z,78.74
2023-01-15T19:23:07.014Z,76.79
2023-01-15T19:25:43.869Z,77.78
2023-01-15T19:28:38.532Z,75.48
2023-01-15T19:31:38.727Z,77.90
2023-01-15T19:34:33.929Z,76.67
2023-01-15T19:37:01.181Z,75.91
2023-01-15T19:39:28.697Z,75.51
2023-01-15T19:42:14.887Z,75.47
2023-01-15T19:45:00.202Z,74.90
2023-01-15T19:47:48.572Z,72.74
2023-01-15T19:50:19.551Z,73.19
2023-01-15T19:52:47.487Z,75.91
2023-01-15T19:55:15.505Z,76.43
2023-01-15T19:57:43.513Z,76.53
2023-01-15T20:00:12.307Z,75.18
2023-01-15T20:02:39.498Z,74.39
2023-01-15T20:05:07.245Z,76.41
2023-01-15T20:07:33.815Z,75.28
2023-01-15T20:10:00.339Z,74.87
2023-01-15T20:12:45.593Z,74.39
2023-01-15T20:15:12.772Z,73.86
2023-01-15T20:17:39.348Z,75.37
2023-01-15T20:20:06.386Z,74.62
2023-01-15T20:22:35.190Z,75.68
2023-01-15T20:25:01.710Z,75.24
2023-01-15T20:27:30.644Z,76.64
2023-01-15T20:30:02.483Z,77.05
2023-01-15T20:32:28.987Z,74.69
2023-01-15T20:34:57.223Z,74.73
2023-01-15T20:37:24.161Z,70.45
2023-01-15T20:39:51.178Z,73.57
2023-01-15T20:42:36.732Z,71.20
2023-01-15T20:45:08.767Z,70.36
2023-01-15T20:47:53.997Z,72.60
2023-01-15T20:50:20.537Z,74.74
2023-01-15T20:52:48.349Z,72.84
2023-01-15T20:55:15.257Z,72.72
2023-01-15T20:57:42.283Z,72.37
2023-01-15T21:00:15.388Z,73.20
2023-01-15T21:02:42.329Z,70.86
2023-01-15T21:05:09.532Z,68.18
2023-01-15T21:07:37.323Z,71.24
2023-01-15T21:10:05.705Z,71.10
2023-01-15T21:12:33.540Z,71.25
2023-01-15T21:15:00.623Z,71.70
2023-01-15T21:17:28.258Z,73.43
2023-01-15T21:19:54.870Z,73.93
2023-01-15T21:22:21.712Z,72.42
2023-01-15T21:24:51.401Z,69.63
2023-01-15T21:27:19.898Z,69.84
2023-01-15T21:29:48.356Z,71.21
2023-01-15T21:32:15.433Z,71.28
2023-01-15T21:34:42.215Z,72.10
2023-01-15T21:37:08.968Z,72.07
2023-01-15T21:39:36.288Z,70.93
2023-01-15T21:42:22.070Z,69.94
2023-01-15T21:44:48.809Z,68.55
2023-01-15T21:47:17.251Z,68.80
2023-01-15T21:49:44.304Z,69.57
2023-01-15T21:52:13.891Z,67.01
2023-01-15T21:54:41.783Z,70.35
2023-01-15T21:57:08.761Z,71.14
2023-01-15T21:59:35.797Z,73.06
2023-01-15T22:02:03.523Z,69.60
2023-01-15T22:04:31.445Z,69.46
2023-01-15T22:06:58.270Z,69.32
2023-01-15T22:09:24.904Z,70.04
2023-01-15T22:11:52.644Z,69.80
2023-01-15T22:14:23.452Z,68.61
2023-01-15T22:16:53.589Z,70.33
2023-01-15T22:19:21.057Z,72.83
2023-01-15T22:21:52.539Z,71.33
2023-01-15T22:24:20.084Z,72.95
2023-01-15T22:26:53.751Z,70.89
2023-01-15T22:29:24.264Z,70.87
2023-01-15T22:31:51.516Z,72.74
2023-01-15T22:34:18.525Z,70.50
2023-01-15T22:36:45.656Z,72.97
2023-01-15T22:39:12.695Z,71.26
2023-01-15T22:41:57.818Z,72.89
2023-01-15T22:44:24.336Z,70.91
2023-01-15T22:46:51.072Z,72.75
2023-01-15T22:49:17.835Z,72.62
2023-01-15T22:51:44.613Z,75.64
2023-01-15T22:54:13.087Z,75.35
2023-01-15T22:56:39.738Z,74.16
2023-01-15T22:59:07.044Z,71.10
2023-01-15T23:01:34.204Z,73.55
2023-01-15T23:04:00.930Z,74.19
2023-01-15T23:06:28.537Z,73.44
2023-01-15T23:08:59.411Z,74.80
2023-01-15T23:11:26.799Z,74.48
2023-01-15T23:13:53.360Z,70.64
2023-01-15T23:16:20.097Z,70.79
2023-01-15T23:18:46.880Z,72.82
2023-01-15T23:21:15.827Z,72.81
2023-01-15T23:23:43.427Z,69.79
2023-01-15T23:26:15.049Z,72.74
2023-01-15T23:28:42.017Z,71.17
2023-01-15T23:31:09.038Z,71.21
2023-01-15T23:33:36.697Z,72.38
2023-01-15T23:36:05.946Z,73.98
2023-01-15T23:38:32.461Z,72.88
2023-01-15T23:40:59.449Z,72.37
2023-01-15T23:43:44.557Z,73.39
2023-01-15T23:46:32.879Z,71.01
2023-01-15T23:48:59.804Z,70.40
2023-01-15T23:51:26.514Z,71.74
2023-01-15T23:53:53.354Z,71.24
2023-01-15T23:56:19.954Z,69.80
2023-01-15T23:58:47.287Z,71.27
